sensor_id;sensor_type;location;lat;lon;timestamp;temperature;humidity
6556;DHT22;3311;48.32423000;14.29074500;2023-04-24T00:01:27;16.90;66.50
6556;DHT22;3311;48.32423000;14.29074500;2023-04-24T00:03:55;16.90;66.60
6556;DHT22;3311;48.32423000;14.29074500;2023-04-24T00:06:25;16.90;66.90
6556;DHT22;3311;48.32423000;14.29074500;2023-04-24T00:09:00;16.90;66.90
6556;DHT22;3311;48.32423000;14.29074500;2023-04-24T00:11:28;16.90;67.10
6556;DHT22;3311;48.32423000;14.29074500;2023-04-24T00:13:55;16.90;67.10
6556;DHT22;3311;48.32423000;14.29074500;2023-04-24T00:16:23;16.90;67.20
6556;DHT22;3311;48.32423000;14.29074500;2023-04-24T00:18:51;16.90;67.40
6556;DHT22;3311;48.32423000;14.29074500;2023-04-24T00:21:19;16.90;67.40
6556;DHT22;3311;48.32423000;14.29074500;2023-04-24T00:23:47;16.90;67.50
6556;DHT22;3311;48.32423000;14.29074500;2023-04-24T00:26:15;16.90;67.50
6556;DHT22;3311;48.32423000;14.29074500;2023-04-24T00:28:42;16.90;67.70
6556;DHT22;3311;48.32423000;14.29074500;2023-04-24T00:31:09;16.90;67.70
6556;DHT22;3311;48.32423000;14.29074500;2023-04-24T00:33:37;16.90;67.70
6556;DHT22;3311;48.32423000;14.29074500;2023-04-24T00:36:06;16.90;67.80
6556;DHT22;3311;48.32423000;14.29074500;2023-04-24T00:38:33;16.90;67.90
6556;DHT22;3311;48.32423000;14.29074500;2023-04-24T00:41:00;16.90;67.90
6556;DHT22;3311;48.32423000;14.29074500;2023-04-24T00:43:27;16.90;68.80
6556;DHT22;3311;48.32423000;14.29074500;2023-04-24T00:45:55;16.90;68.20
6556;DHT22;3311;48.32423000;14.29074500;2023-04-24T00:48:24;16.90;68.10
6556;DHT22;3311;48.32423000;14.29074500;2023-04-24T00:50:52;16.90;68.20
6556;DHT22;3311;48.32423000;14.29074500;2023-04-24T00:53:21;17.00;68.20
6556;DHT22;3311;48.32423000;14.29074500;2023-04-24T00:55:48;17.00;68.30
6556;DHT22;3311;48.32423000;14.29074500;2023-04-24T00:58:15;17.00;68.30
6556;DHT22;3311;48.32423000;14.29074500;2023-04-24T01:00:44;16.90;68.40
6556;DHT22;3311;48.32423000;14.29074500;2023-04-24T01:03:13;16.90;68.50
6556;DHT22;3311;48.32423000;14.29074500;2023-04-24T01:05:41;16.90;68.60
6556;DHT22;3311;48.32423000;14.29074500;2023-04-24T01:08:09;16.90;68.70
6556;DHT22;3311;48.32423000;14.29074500;2023-04-24T01:10:39;17.00;68.70
6556;DHT22;3311;48.32423000;14.29074500;2023-04-24T01:13:08;16.90;68.80
6556;DHT22;3311;48.32423000;14.29074500;2023-04-24T01:15:35;16.90;68.90
6556;DHT22;3311;48.32423000;14.29074500;2023-04-24T01:18:03;16.90;69.00
6556;DHT22;3311;48.32423000;14.29074500;2023-04-24T01:20:32;16.90;69.20
6556;DHT22;3311;48.32423000;14.29074500;2023-04-24T01:23:02;16.90;69.00
6556;DHT22;3311;48.32423000;14.29074500;2023-04-24T01:25:30;16.90;69.10
6556;DHT22;3311;48.32423000;14.29074500;2023-04-24T01:27:57;16.90;69.10
6556;DHT22;3311;48.32423000;14.29074500;2023-04-24T01:30:25;16.90;69.20
6556;DHT22;3311;48.32423000;14.29074500;2023-04-24T01:32:53;16.90;69.40
6556;DHT22;3311;48.32423000;14.29074500;2023-04-24T01:35:20;16.90;69.30
6556;DHT22;3311;48.32423000;14.29074500;2023-04-24T01:37:48;16.90;69.40
6556;DHT22;3311;48.32423000;14.29074500;2023-04-24T01:40:16;16.90;69.70
6556;DHT22;3311;48.32423000;14.29074500;2023-04-24T01:42:45;16.80;70.20
6556;DHT22;3311;48.32423000;14.29074500;2023-04-24T01:45:12;16.80;70.20
6556;DHT22;3311;48.32423000;14.29074500;2023-04-24T01:47:40;16.80;70.40
6556;DHT22;3311;48.32423000;14.29074500;2023-04-24T01:50:09;16.90;70.40
6556;DHT22;3311;48.32423000;14.29074500;2023-04-24T01:52:36;16.80;70.90
6556;DHT22;3311;48.32423000;14.29074500;2023-04-24T01:55:05;16.80;70.80
6556;DHT22;3311;48.32423000;14.29074500;2023-04-24T01:57:34;16.90;70.90
6556;DHT22;3311;48.32423000;14.29074500;2023-04-24T02:00:03;16.80;71.30
6556;DHT22;3311;48.32423000;14.29074500;2023-04-24T02:02:32;16.80;71.20
6556;DHT22;3311;48.32423000;14.29074500;2023-04-24T02:05:00;16.80;71.60
6556;DHT22;3311;48.32423000;14.29074500;2023-04-24T02:07:28;16.80;71.50
6556;DHT22;3311;48.32423000;14.29074500;2023-04-24T02:09:55;16.80;71.90
6556;DHT22;3311;48.32423000;14.29074500;2023-04-24T02:12:23;16.80;71.80
6556;DHT22;3311;48.32423000;14.29074500;2023-04-24T02:14:51;16.80;71.80
6556;DHT22;3311;48.32423000;14.29074500;2023-04-24T02:17:19;16.80;72.00
6556;DHT22;3311;48.32423000;14.29074500;2023-04-24T02:19:46;16.80;72.30
6556;DHT22;3311;48.32423000;14.29074500;2023-04-24T02:22:13;16.70;72.70
6556;DHT22;3311;48.32423000;14.29074500;2023-04-24T02:24:41;16.80;72.70
6556;DHT22;3311;48.32423000;14.29074500;2023-04-24T02:27:08;16.80;72.50
6556;DHT22;3311;48.32423000;14.29074500;2023-04-24T02:29:35;16.80;72.50
6556;DHT22;3311;48.32423000;14.29074500;2023-04-24T02:32:04;16.80;72.70
6556;DHT22;3311;48.32423000;14.29074500;2023-04-24T02:34:31;16.80;72.90
6556;DHT22;3311;48.32423000;14.29074500;2023-04-24T02:36:59;16.80;73.00
6556;DHT22;3311;48.32423000;14.29074500;2023-04-24T02:39:26;16.80;73.20
6556;DHT22;3311;48.32423000;14.29074500;2023-04-24T02:41:53;16.80;73.20
6556;DHT22;3311;48.32423000;14.29074500;2023-04-24T02:44:21;16.80;73.30
6556;DHT22;3311;48.32423000;14.29074500;2023-04-24T02:46:49;16.80;73.30
6556;DHT22;3311;48.32423000;14.29074500;2023-04-24T02:49:17;16.70;73.40
6556;DHT22;3311;48.32423000;14.29074500;2023-04-24T02:51:45;16.60;74.10
6556;DHT22;3311;48.32423000;14.29074500;2023-04-24T02:54:12;16.60;73.70
6556;DHT22;3311;48.32423000;14.29074500;2023-04-24T02:56:39;16.60;74.00
6556;DHT22;3311;48.32423000;14.29074500;2023-04-24T02:59:07;16.60;74.10
6556;DHT22;3311;48.32423000;14.29074500;2023-04-24T03:01:36;16.60;74.20
6556;DHT22;3311;48.32423000;14.29074500;2023-04-24T03:04:03;16.70;74.10
6556;DHT22;3311;48.32423000;14.29074500;2023-04-24T03:06:32;16.70;74.10
6556;DHT22;3311;48.32423000;14.29074500;2023-04-24T03:09:01;16.70;74.30
6556;DHT22;3311;48.32423000;14.29074500;2023-04-24T03:11:29;16.60;74.50
6556;DHT22;3311;48.32423000;14.29074500;2023-04-24T03:13:56;16.50;74.70
6556;DHT22;3311;48.32423000;14.29074500;2023-04-24T03:16:23;16.60;74.50
6556;DHT22;3311;48.32423000;14.29074500;2023-04-24T03:18:51;16.60;74.40
6556;DHT22;3311;48.32423000;14.29074500;2023-04-24T03:21:18;16.50;74.60
6556;DHT22;3311;48.32423000;14.29074500;2023-04-24T03:23:47;16.60;74.60
6556;DHT22;3311;48.32423000;14.29074500;2023-04-24T03:26:14;16.60;74.70
6556;DHT22;3311;48.32423000;14.29074500;2023-04-24T03:28:42;16.60;74.40
6556;DHT22;3311;48.32423000;14.29074500;2023-04-24T03:31:09;16.60;74.50
6556;DHT22;3311;48.32423000;14.29074500;2023-04-24T03:33:36;16.60;74.70
6556;DHT22;3311;48.32423000;14.29074500;2023-04-24T03:36:04;16.50;74.60
6556;DHT22;3311;48.32423000;14.29074500;2023-04-24T03:38:32;16.60;74.50
6556;DHT22;3311;48.32423000;14.29074500;2023-04-24T03:41:00;16.60;74.70
6556;DHT22;3311;48.32423000;14.29074500;2023-04-24T03:43:28;16.60;74.60
6556;DHT22;3311;48.32423000;14.29074500;2023-04-24T03:45:55;16.50;74.80
6556;DHT22;3311;48.32423000;14.29074500;2023-04-24T03:48:23;16.50;74.80
6556;DHT22;3311;48.32423000;14.29074500;2023-04-24T03:50:50;16.50;74.90
6556;DHT22;3311;48.32423000;14.29074500;2023-04-24T03:53:17;16.50;74.90
6556;DHT22;3311;48.32423000;14.29074500;2023-04-24T03:55:46;16.50;74.90
6556;DHT22;3311;48.32423000;14.29074500;2023-04-24T03:58:14;16.50;75.00
6556;DHT22;3311;48.32423000;14.29074500;2023-04-24T04:00:42;16.50;74.80
6556;DHT22;3311;48.32423000;14.29074500;2023-04-24T04:03:10;16.50;75.20
6556;DHT22;3311;48.32423000;14.29074500;2023-04-24T04:05:38;16.50;75.20
6556;DHT22;3311;48.32423000;14.29074500;2023-04-24T04:08:06;16.40;75.40
6556;DHT22;3311;48.32423000;14.29074500;2023-04-24T04:10:33;16.40;75.60
6556;DHT22;3311;48.32423000;14.29074500;2023-04-24T04:13:00;16.40;75.60
6556;DHT22;3311;48.32423000;14.29074500;2023-04-24T04:15:29;16.40;75.80
6556;DHT22;3311;48.32423000;14.29074500;2023-04-24T04:17:56;16.40;75.60
6556;DHT22;3311;48.32423000;14.29074500;2023-04-24T04:20:24;16.40;75.50
6556;DHT22;3311;48.32423000;14.29074500;2023-04-24T04:22:51;16.50;75.20
6556;DHT22;3311;48.32423000;14.29074500;2023-04-24T04:25:18;16.50;75.40
6556;DHT22;3311;48.32423000;14.29074500;2023-04-24T04:27:46;16.50;74.90
6556;DHT22;3311;48.32423000;14.29074500;2023-04-24T04:30:14;16.60;75.00
6556;DHT22;3311;48.32423000;14.29074500;2023-04-24T04:32:43;16.50;75.20
6556;DHT22;3311;48.32423000;14.29074500;2023-04-24T04:35:10;16.50;75.20
6556;DHT22;3311;48.32423000;14.29074500;2023-04-24T04:37:38;16.50;75.10
6556;DHT22;3311;48.32423000;14.29074500;2023-04-24T04:40:07;16.50;75.20
6556;DHT22;3311;48.32423000;14.29074500;2023-04-24T04:42:37;16.50;75.20
6556;DHT22;3311;48.32423000;14.29074500;2023-04-24T04:45:07;16.50;75.20
6556;DHT22;3311;48.32423000;14.29074500;2023-04-24T04:47:37;16.50;75.30
6556;DHT22;3311;48.32423000;14.29074500;2023-04-24T04:50:08;16.50;75.30
6556;DHT22;3311;48.32423000;14.29074500;2023-04-24T04:52:36;16.40;75.50
6556;DHT22;3311;48.32423000;14.29074500;2023-04-24T04:55:04;16.40;75.70
6556;DHT22;3311;48.32423000;14.29074500;2023-04-24T04:57:32;16.50;75.40
6556;DHT22;3311;48.32423000;14.29074500;2023-04-24T04:59:59;16.50;75.40
6556;DHT22;3311;48.32423000;14.29074500;2023-04-24T05:02:27;16.40;75.50
6556;DHT22;3311;48.32423000;14.29074500;2023-04-24T05:04:54;16.50;75.50
6556;DHT22;3311;48.32423000;14.29074500;2023-04-24T05:07:22;16.40;75.50
6556;DHT22;3311;48.32423000;14.29074500;2023-04-24T05:09:50;16.40;75.70
6556;DHT22;3311;48.32423000;14.29074500;2023-04-24T05:12:18;16.40;75.50
6556;DHT22;3311;48.32423000;14.29074500;2023-04-24T05:14:45;16.40;75.50
6556;DHT22;3311;48.32423000;14.29074500;2023-04-24T05:17:12;16.40;75.70
6556;DHT22;3311;48.32423000;14.29074500;2023-04-24T05:19:39;16.40;75.80
6556;DHT22;3311;48.32423000;14.29074500;2023-04-24T05:22:06;16.40;76.20
6556;DHT22;3311;48.32423000;14.29074500;2023-04-24T05:24:36;16.50;75.60
6556;DHT22;3311;48.32423000;14.29074500;2023-04-24T05:27:05;16.50;75.60
6556;DHT22;3311;48.32423000;14.29074500;2023-04-24T05:29:33;16.50;75.40
6556;DHT22;3311;48.32423000;14.29074500;2023-04-24T05:32:00;16.50;75.50
6556;DHT22;3311;48.32423000;14.29074500;2023-04-24T05:34:27;16.50;75.50
6556;DHT22;3311;48.32423000;14.29074500;2023-04-24T05:36:55;16.40;75.50
6556;DHT22;3311;48.32423000;14.29074500;2023-04-24T05:39:22;16.50;75.50
6556;DHT22;3311;48.32423000;14.29074500;2023-04-24T05:41:52;16.50;75.10
6556;DHT22;3311;48.32423000;14.29074500;2023-04-24T05:44:19;16.50;75.00
6556;DHT22;3311;48.32423000;14.29074500;2023-04-24T05:46:46;16.50;75.00
6556;DHT22;3311;48.32423000;14.29074500;2023-04-24T05:49:13;16.50;75.00
6556;DHT22;3311;48.32423000;14.29074500;2023-04-24T05:51:40;16.50;74.80
6556;DHT22;3311;48.32423000;14.29074500;2023-04-24T05:54:07;16.50;74.80
6556;DHT22;3311;48.32423000;14.29074500;2023-04-24T05:56:36;16.60;74.80
6556;DHT22;3311;48.32423000;14.29074500;2023-04-24T05:59:04;16.60;74.50
6556;DHT22;3311;48.32423000;14.29074500;2023-04-24T06:01:31;16.60;74.70
6556;DHT22;3311;48.32423000;14.29074500;2023-04-24T06:03:59;16.60;74.40
6556;DHT22;3311;48.32423000;14.29074500;2023-04-24T06:06:26;16.50;74.50
6556;DHT22;3311;48.32423000;14.29074500;2023-04-24T06:08:54;16.50;74.60
6556;DHT22;3311;48.32423000;14.29074500;2023-04-24T06:11:23;16.50;74.40
6556;DHT22;3311;48.32423000;14.29074500;2023-04-24T06:13:50;16.50;74.50
6556;DHT22;3311;48.32423000;14.29074500;2023-04-24T06:16:19;16.40;74.40
6556;DHT22;3311;48.32423000;14.29074500;2023-04-24T06:18:46;16.50;74.40
6556;DHT22;3311;48.32423000;14.29074500;2023-04-24T06:21:15;16.50;74.30
6556;DHT22;3311;48.32423000;14.29074500;2023-04-24T06:23:43;16.50;74.50
6556;DHT22;3311;48.32423000;14.29074500;2023-04-24T06:26:12;16.50;74.30
6556;DHT22;3311;48.32423000;14.29074500;2023-04-24T06:28:39;16.50;74.10
6556;DHT22;3311;48.32423000;14.29074500;2023-04-24T06:31:06;16.50;74.20
6556;DHT22;3311;48.32423000;14.29074500;2023-04-24T06:33:35;16.50;74.10
6556;DHT22;3311;48.32423000;14.29074500;2023-04-24T06:36:02;16.50;74.10
6556;DHT22;3311;48.32423000;14.29074500;2023-04-24T06:38:29;16.60;73.80
6556;DHT22;3311;48.32423000;14.29074500;2023-04-24T06:40:57;16.50;73.90
6556;DHT22;3311;48.32423000;14.29074500;2023-04-24T06:43:24;16.40;74.00
6556;DHT22;3311;48.32423000;14.29074500;2023-04-24T06:45:51;16.40;74.10
6556;DHT22;3311;48.32423000;14.29074500;2023-04-24T06:48:18;16.40;74.00
6556;DHT22;3311;48.32423000;14.29074500;2023-04-24T06:50:47;16.40;74.10
6556;DHT22;3311;48.32423000;14.29074500;2023-04-24T06:53:16;16.50;74.50
6556;DHT22;3311;48.32423000;14.29074500;2023-04-24T06:55:44;16.50;73.70
6556;DHT22;3311;48.32423000;14.29074500;2023-04-24T06:58:11;16.60;73.60
6556;DHT22;3311;48.32423000;14.29074500;2023-04-24T07:00:40;16.50;73.80
6556;DHT22;3311;48.32423000;14.29074500;2023-04-24T07:03:07;16.40;73.80
6556;DHT22;3311;48.32423000;14.29074500;2023-04-24T07:05:34;16.50;73.90
6556;DHT22;3311;48.32423000;14.29074500;2023-04-24T07:08:05;16.50;73.30
6556;DHT22;3311;48.32423000;14.29074500;2023-04-24T07:10:34;16.50;73.80
6556;DHT22;3311;48.32423000;14.29074500;2023-04-24T07:13:02;16.50;73.70
6556;DHT22;3311;48.32423000;14.29074500;2023-04-24T07:15:29;16.50;73.80
6556;DHT22;3311;48.32423000;14.29074500;2023-04-24T07:17:58;16.50;73.90
6556;DHT22;3311;48.32423000;14.29074500;2023-04-24T07:20:25;16.50;73.70
6556;DHT22;3311;48.32423000;14.29074500;2023-04-24T07:22:52;16.60;73.40
6556;DHT22;3311;48.32423000;14.29074500;2023-04-24T07:25:21;16.60;73.40
6556;DHT22;3311;48.32423000;14.29074500;2023-04-24T07:27:48;16.60;73.50
6556;DHT22;3311;48.32423000;14.29074500;2023-04-24T07:30:16;16.60;73.50
6556;DHT22;3311;48.32423000;14.29074500;2023-04-24T07:32:43;16.60;73.40
6556;DHT22;3311;48.32423000;14.29074500;2023-04-24T07:35:10;16.60;73.50
6556;DHT22;3311;48.32423000;14.29074500;2023-04-24T07:37:37;16.60;73.70
6556;DHT22;3311;48.32423000;14.29074500;2023-04-24T07:40:06;16.60;73.80
6556;DHT22;3311;48.32423000;14.29074500;2023-04-24T07:42:35;16.70;73.50
6556;DHT22;3311;48.32423000;14.29074500;2023-04-24T07:45:02;16.70;73.40
6556;DHT22;3311;48.32423000;14.29074500;2023-04-24T07:47:29;16.70;73.30
6556;DHT22;3311;48.32423000;14.29074500;2023-04-24T07:49:57;16.70;73.20
6556;DHT22;3311;48.32423000;14.29074500;2023-04-24T07:52:24;16.70;73.30
6556;DHT22;3311;48.32423000;14.29074500;2023-04-24T07:54:51;16.70;73.30
6556;DHT22;3311;48.32423000;14.29074500;2023-04-24T07:57:24;16.70;73.70
6556;DHT22;3311;48.32423000;14.29074500;2023-04-24T07:59:52;16.70;74.00
6556;DHT22;3311;48.32423000;14.29074500;2023-04-24T08:02:20;16.70;73.50
6556;DHT22;3311;48.32423000;14.29074500;2023-04-24T08:04:52;16.70;73.50
6556;DHT22;3311;48.32423000;14.29074500;2023-04-24T08:07:20;16.70;73.30
6556;DHT22;3311;48.32423000;14.29074500;2023-04-24T08:09:47;16.60;73.80
6556;DHT22;3311;48.32423000;14.29074500;2023-04-24T08:12:14;16.60;74.00
6556;DHT22;3311;48.32423000;14.29074500;2023-04-24T08:14:41;16.60;73.90
6556;DHT22;3311;48.32423000;14.29074500;2023-04-24T08:17:10;16.70;74.00
6556;DHT22;3311;48.32423000;14.29074500;2023-04-24T08:19:37;16.70;73.70
6556;DHT22;3311;48.32423000;14.29074500;2023-04-24T08:22:04;16.80;73.50
6556;DHT22;3311;48.32423000;14.29074500;2023-04-24T08:24:32;16.70;73.80
6556;DHT22;3311;48.32423000;14.29074500;2023-04-24T08:26:59;16.70;74.10
6556;DHT22;3311;48.32423000;14.29074500;2023-04-24T08:29:27;16.70;74.20
6556;DHT22;3311;48.32423000;14.29074500;2023-04-24T08:31:55;16.60;74.10
6556;DHT22;3311;48.32423000;14.29074500;2023-04-24T08:34:23;16.60;74.00
6556;DHT22;3311;48.32423000;14.29074500;2023-04-24T08:36:51;16.60;74.30
6556;DHT22;3311;48.32423000;14.29074500;2023-04-24T08:39:18;16.60;74.50
6556;DHT22;3311;48.32423000;14.29074500;2023-04-24T08:41:45;16.60;74.30
6556;DHT22;3311;48.32423000;14.29074500;2023-04-24T08:44:15;16.70;73.90
6556;DHT22;3311;48.32423000;14.29074500;2023-04-24T08:46:43;16.70;74.10
6556;DHT22;3311;48.32423000;14.29074500;2023-04-24T08:49:15;16.70;74.10
6556;DHT22;3311;48.32423000;14.29074500;2023-04-24T08:51:44;16.80;73.90
6556;DHT22;3311;48.32423000;14.29074500;2023-04-24T08:54:13;16.80;73.60
6556;DHT22;3311;48.32423000;14.29074500;2023-04-24T08:56:42;16.80;73.40
6556;DHT22;3311;48.32423000;14.29074500;2023-04-24T08:59:11;16.80;73.40
6556;DHT22;3311;48.32423000;14.29074500;2023-04-24T09:01:38;16.80;73.20
6556;DHT22;3311;48.32423000;14.29074500;2023-04-24T09:04:08;16.90;73.30
6556;DHT22;3311;48.32423000;14.29074500;2023-04-24T09:06:37;16.80;73.40
6556;DHT22;3311;48.32423000;14.29074500;2023-04-24T09:09:07;16.90;73.40
6556;DHT22;3311;48.32423000;14.29074500;2023-04-24T09:11:36;16.90;73.30
6556;DHT22;3311;48.32423000;14.29074500;2023-04-24T09:14:04;17.00;73.20
6556;DHT22;3311;48.32423000;14.29074500;2023-04-24T09:16:31;17.00;73.10
6556;DHT22;3311;48.32423000;14.29074500;2023-04-24T09:18:59;17.00;72.90
6556;DHT22;3311;48.32423000;14.29074500;2023-04-24T09:21:31;17.00;73.00
6556;DHT22;3311;48.32423000;14.29074500;2023-04-24T09:24:01;17.00;73.00
6556;DHT22;3311;48.32423000;14.29074500;2023-04-24T09:26:31;17.10;73.00
6556;DHT22;3311;48.32423000;14.29074500;2023-04-24T09:28:59;17.10;72.80
6556;DHT22;3311;48.32423000;14.29074500;2023-04-24T09:31:28;17.10;72.90
6556;DHT22;3311;48.32423000;14.29074500;2023-04-24T09:33:57;17.00;72.90
6556;DHT22;3311;48.32423000;14.29074500;2023-04-24T09:36:29;16.90;73.00
6556;DHT22;3311;48.32423000;14.29074500;2023-04-24T09:38:59;16.90;72.90
6556;DHT22;3311;48.32423000;14.29074500;2023-04-24T09:41:27;17.00;72.80
6556;DHT22;3311;48.32423000;14.29074500;2023-04-24T09:43:56;17.00;72.80
6556;DHT22;3311;48.32423000;14.29074500;2023-04-24T09:46:30;16.90;73.20
6556;DHT22;3311;48.32423000;14.29074500;2023-04-24T09:48:57;16.90;73.30
6556;DHT22;3311;48.32423000;14.29074500;2023-04-24T09:51:35;17.00;73.30
6556;DHT22;3311;48.32423000;14.29074500;2023-04-24T09:54:04;16.90;73.50
6556;DHT22;3311;48.32423000;14.29074500;2023-04-24T09:56:34;16.90;74.40
6556;DHT22;3311;48.32423000;14.29074500;2023-04-24T09:59:07;16.90;74.10
6556;DHT22;3311;48.32423000;14.29074500;2023-04-24T10:01:34;16.90;73.70
6556;DHT22;3311;48.32423000;14.29074500;2023-04-24T10:04:04;17.00;73.60
6556;DHT22;3311;48.32423000;14.29074500;2023-04-24T10:06:33;17.00;73.80
6556;DHT22;3311;48.32423000;14.29074500;2023-04-24T10:09:02;17.00;74.00
6556;DHT22;3311;48.32423000;14.29074500;2023-04-24T10:11:30;17.00;73.70
6556;DHT22;3311;48.32423000;14.29074500;2023-04-24T10:13:57;17.10;73.20
6556;DHT22;3311;48.32423000;14.29074500;2023-04-24T10:16:27;17.10;73.50
6556;DHT22;3311;48.32423000;14.29074500;2023-04-24T10:18:55;17.20;73.50
6556;DHT22;3311;48.32423000;14.29074500;2023-04-24T10:21:23;17.30;73.50
6556;DHT22;3311;48.32423000;14.29074500;2023-04-24T10:23:50;17.30;73.40
6556;DHT22;3311;48.32423000;14.29074500;2023-04-24T10:26:19;17.30;73.60
6556;DHT22;3311;48.32423000;14.29074500;2023-04-24T10:28:47;17.30;73.50
6556;DHT22;3311;48.32423000;14.29074500;2023-04-24T10:31:15;17.20;73.80
6556;DHT22;3311;48.32423000;14.29074500;2023-04-24T10:33:46;17.20;73.50
6556;DHT22;3311;48.32423000;14.29074500;2023-04-24T10:36:14;17.30;73.40
6556;DHT22;3311;48.32423000;14.29074500;2023-04-24T10:38:45;17.30;73.60
6556;DHT22;3311;48.32423000;14.29074500;2023-04-24T10:41:23;17.20;73.50
6556;DHT22;3311;48.32423000;14.29074500;2023-04-24T10:44:05;17.20;73.70
6556;DHT22;3311;48.32423000;14.29074500;2023-04-24T10:46:33;17.30;73.70
6556;DHT22;3311;48.32423000;14.29074500;2023-04-24T10:49:04;17.40;73.20
6556;DHT22;3311;48.32423000;14.29074500;2023-04-24T10:51:48;17.40;73.10
6556;DHT22;3311;48.32423000;14.29074500;2023-04-24T10:54:23;17.50;73.00
6556;DHT22;3311;48.32423000;14.29074500;2023-04-24T10:56:50;17.50;72.70
6556;DHT22;3311;48.32423000;14.29074500;2023-04-24T10:59:24;17.60;73.20
6556;DHT22;3311;48.32423000;14.29074500;2023-04-24T11:01:55;17.60;72.60
6556;DHT22;3311;48.32423000;14.29074500;2023-04-24T11:04:31;17.60;73.10
6556;DHT22;3311;48.32423000;14.29074500;2023-04-24T11:06:59;17.60;73.00
6556;DHT22;3311;48.32423000;14.29074500;2023-04-24T11:09:27;17.70;72.40
6556;DHT22;3311;48.32423000;14.29074500;2023-04-24T11:12:04;17.70;72.30
6556;DHT22;3311;48.32423000;14.29074500;2023-04-24T11:15:01;17.80;72.10
6556;DHT22;3311;48.32423000;14.29074500;2023-04-24T11:17:32;17.80;72.90
6556;DHT22;3311;48.32423000;14.29074500;2023-04-24T11:20:05;17.80;72.50
6556;DHT22;3311;48.32423000;14.29074500;2023-04-24T11:22:35;17.80;72.20
6556;DHT22;3311;48.32423000;14.29074500;2023-04-24T11:25:04;17.80;72.30
6556;DHT22;3311;48.32423000;14.29074500;2023-04-24T11:27:38;17.80;72.50
6556;DHT22;3311;48.32423000;14.29074500;2023-04-24T11:30:07;17.90;72.10
6556;DHT22;3311;48.32423000;14.29074500;2023-04-24T11:32:36;17.90;71.90
6556;DHT22;3311;48.32423000;14.29074500;2023-04-24T11:35:08;18.00;71.80
6556;DHT22;3311;48.32423000;14.29074500;2023-04-24T11:37:37;18.00;71.80
6556;DHT22;3311;48.32423000;14.29074500;2023-04-24T11:40:06;17.90;71.30
6556;DHT22;3311;48.32423000;14.29074500;2023-04-24T11:42:34;17.90;71.50
6556;DHT22;3311;48.32423000;14.29074500;2023-04-24T11:45:02;17.80;71.50
6556;DHT22;3311;48.32423000;14.29074500;2023-04-24T11:47:34;17.70;71.90
6556;DHT22;3311;48.32423000;14.29074500;2023-04-24T11:50:02;17.60;72.60
6556;DHT22;3311;48.32423000;14.29074500;2023-04-24T11:52:31;17.50;73.00
6556;DHT22;3311;48.32423000;14.29074500;2023-04-24T11:55:00;17.50;71.90
6556;DHT22;3311;48.32423000;14.29074500;2023-04-24T11:57:27;17.40;72.00
6556;DHT22;3311;48.32423000;14.29074500;2023-04-24T11:59:59;17.30;72.50
6556;DHT22;3311;48.32423000;14.29074500;2023-04-24T12:02:27;17.30;72.50
6556;DHT22;3311;48.32423000;14.29074500;2023-04-24T12:04:54;17.30;72.50
6556;DHT22;3311;48.32423000;14.29074500;2023-04-24T12:07:23;17.30;72.50
6556;DHT22;3311;48.32423000;14.29074500;2023-04-24T12:09:58;17.40;72.80
6556;DHT22;3311;48.32423000;14.29074500;2023-04-24T12:12:27;17.40;73.00
6556;DHT22;3311;48.32423000;14.29074500;2023-04-24T12:14:55;17.40;72.60
6556;DHT22;3311;48.32423000;14.29074500;2023-04-24T12:17:27;17.40;72.50
6556;DHT22;3311;48.32423000;14.29074500;2023-04-24T12:20:01;17.40;72.50
6556;DHT22;3311;48.32423000;14.29074500;2023-04-24T12:22:35;17.50;72.70
6556;DHT22;3311;48.32423000;14.29074500;2023-04-24T12:25:12;17.40;72.40
6556;DHT22;3311;48.32423000;14.29074500;2023-04-24T12:27:39;17.30;72.90
6556;DHT22;3311;48.32423000;14.29074500;2023-04-24T12:30:11;17.30;72.80
6556;DHT22;3311;48.32423000;14.29074500;2023-04-24T12:32:42;17.20;72.40
6556;DHT22;3311;48.32423000;14.29074500;2023-04-24T12:35:09;17.10;72.30
6556;DHT22;3311;48.32423000;14.29074500;2023-04-24T12:37:36;17.10;71.90
6556;DHT22;3311;48.32423000;14.29074500;2023-04-24T12:40:07;17.00;72.10
6556;DHT22;3311;48.32423000;14.29074500;2023-04-24T12:42:42;17.00;72.00
6556;DHT22;3311;48.32423000;14.29074500;2023-04-24T12:45:09;16.90;71.70
6556;DHT22;3311;48.32423000;14.29074500;2023-04-24T12:47:38;16.90;71.80
6556;DHT22;3311;48.32423000;14.29074500;2023-04-24T12:50:07;16.90;72.40
6556;DHT22;3311;48.32423000;14.29074500;2023-04-24T12:52:34;16.80;72.40
6556;DHT22;3311;48.32423000;14.29074500;2023-04-24T12:55:02;16.80;72.70
6556;DHT22;3311;48.32423000;14.29074500;2023-04-24T12:57:31;16.80;72.90
6556;DHT22;3311;48.32423000;14.29074500;2023-04-24T12:59:59;16.80;72.80
6556;DHT22;3311;48.32423000;14.29074500;2023-04-24T13:02:28;16.70;72.60
6556;DHT22;3311;48.32423000;14.29074500;2023-04-24T13:04:56;16.70;73.00
6556;DHT22;3311;48.32423000;14.29074500;2023-04-24T13:07:23;16.80;72.80
6556;DHT22;3311;48.32423000;14.29074500;2023-04-24T13:09:51;16.80;72.60
6556;DHT22;3311;48.32423000;14.29074500;2023-04-24T13:12:19;16.80;72.70
6556;DHT22;3311;48.32423000;14.29074500;2023-04-24T13:14:47;16.90;72.50
6556;DHT22;3311;48.32423000;14.29074500;2023-04-24T13:17:15;16.90;72.40
6556;DHT22;3311;48.32423000;14.29074500;2023-04-24T13:19:43;16.90;72.40
6556;DHT22;3311;48.32423000;14.29074500;2023-04-24T13:22:12;17.00;72.50
6556;DHT22;3311;48.32423000;14.29074500;2023-04-24T13:24:40;17.00;72.20
6556;DHT22;3311;48.32423000;14.29074500;2023-04-24T13:27:07;17.10;72.00
6556;DHT22;3311;48.32423000;14.29074500;2023-04-24T13:29:35;17.10;72.20
6556;DHT22;3311;48.32423000;14.29074500;2023-04-24T13:32:02;17.20;72.00
6556;DHT22;3311;48.32423000;14.29074500;2023-04-24T13:34:31;17.20;71.90
6556;DHT22;3311;48.32423000;14.29074500;2023-04-24T13:37:00;17.30;71.80
6556;DHT22;3311;48.32423000;14.29074500;2023-04-24T13:39:29;17.30;71.70
6556;DHT22;3311;48.32423000;14.29074500;2023-04-24T13:41:57;17.30;71.70